createdAt,value
2022-09-06T00:01:15.226Z,18.40
2022-09-06T00:03:48.723Z,18.40
2022-09-06T00:06:18.327Z,18.40
2022-09-06T00:08:48.936Z,18.50
2022-09-06T00:11:25.427Z,18.50
2022-09-06T00:13:52.033Z,18.50
2022-09-06T00:16:28.467Z,18.50
2022-09-06T00:18:57.352Z,18.50
2022-09-06T00:21:30.871Z,18.50
2022-09-06T00:23:58.332Z,18.50
2022-09-06T00:26:25.595Z,18.40
2022-09-06T00:28:52.304Z,18.40
2022-09-06T00:31:21.866Z,18.40
2022-09-06T00:33:48.833Z,18.40
2022-09-06T00:36:24.061Z,18.40
2022-09-06T00:38:50.709Z,18.40
2022-09-06T00:41:19.207Z,18.40
2022-09-06T00:43:54.417Z,18.40
2022-09-06T00:46:32.911Z,18.40
2022-09-06T00:49:12.029Z,18.40
2022-09-06T00:51:47.974Z,18.40
2022-09-06T00:54:14.817Z,18.40
2022-09-06T00:56:43.999Z,18.40
2022-09-06T00:59:10.519Z,18.40
2022-09-06T01:01:37.307Z,18.40
2022-09-06T01:04:04.577Z,18.40
2022-09-06T01:06:42.756Z,18.50
2022-09-06T01:09:21.350Z,18.50
2022-09-06T01:12:09.032Z,18.40
2022-09-06T01:15:01.649Z,18.50
2022-09-06T01:18:00.996Z,18.50
2022-09-06T01:20:58.773Z,18.50
2022-09-06T01:23:46.498Z,18.50
2022-09-06T01:26:41.346Z,18.50
2022-09-06T01:29:44.144Z,18.60
2022-09-06T01:32:30.001Z,18.60
2022-09-06T01:35:34.880Z,18.60
2022-09-06T01:38:10.026Z,18.60
2022-09-06T01:40:42.757Z,18.60
2022-09-06T01:43:12.970Z,18.60
2022-09-06T01:46:11.841Z,18.60
2022-09-06T01:49:04.250Z,18.60
2022-09-06T01:51:48.866Z,18.50
2022-09-06T01:54:38.913Z,18.50
2022-09-06T01:57:21.306Z,18.50
2022-09-06T02:00:11.300Z,18.50
2022-09-06T02:02:57.441Z,18.50
2022-09-06T02:05:27.682Z,18.50
2022-09-06T02:08:02.457Z,18.50
2022-09-06T02:10:43.473Z,18.60
2022-09-06T02:13:12.406Z,18.60
2022-09-06T02:15:50.983Z,18.70
2022-09-06T02:18:26.517Z,18.80
2022-09-06T02:20:56.797Z,18.90
2022-09-06T02:23:27.411Z,19.10
2022-09-06T02:25:58.646Z,19.10
2022-09-06T02:28:28.760Z,19.20
2022-09-06T02:31:03.580Z,19.50
2022-09-06T02:33:33.230Z,19.60
2022-09-06T02:36:05.670Z,19.70
2022-09-06T02:38:40.204Z,19.80
2022-09-06T02:41:08.005Z,19.80
2022-09-06T02:43:35.129Z,19.90
2022-09-06T02:46:05.308Z,19.90
2022-09-06T02:48:31.932Z,19.90
2022-09-06T02:51:03.315Z,19.90
2022-09-06T02:53:36.124Z,19.90
2022-09-06T02:56:02.979Z,19.90
2022-09-06T02:58:30.036Z,19.80
2022-09-06T03:00:56.635Z,19.80
2022-09-06T03:03:27.069Z,19.80
2022-09-06T03:05:57.113Z,19.80
2022-09-06T03:08:26.229Z,19.70
2022-09-06T03:10:56.284Z,19.70
2022-09-06T03:13:32.152Z,19.70
2022-09-06T03:16:01.707Z,19.80
2022-09-06T03:18:31.283Z,19.80
2022-09-06T03:20:59.029Z,19.80
2022-09-06T03:23:33.852Z,19.80
2022-09-06T03:26:00.880Z,19.90
2022-09-06T03:28:33.512Z,19.90
2022-09-06T03:31:05.516Z,20.00
2022-09-06T03:33:32.558Z,20.00
2022-09-06T03:36:04.183Z,20.10
2022-09-06T03:38:37.455Z,20.10
2022-09-06T03:41:10.585Z,20.10
2022-09-06T03:43:37.598Z,20.00
2022-09-06T03:46:04.632Z,19.90
2022-09-06T03:48:32.691Z,19.70
2022-09-06T03:51:02.476Z,19.60
2022-09-06T03:53:30.183Z,19.60
2022-09-06T03:56:02.853Z,19.50
2022-09-06T03:58:37.171Z,19.50
2022-09-06T04:01:14.093Z,19.50
2022-09-06T04:03:41.074Z,19.50
2022-09-06T04:06:10.405Z,19.50
2022-09-06T04:08:38.274Z,19.50
2022-09-06T04:11:08.732Z,19.60
2022-09-06T04:13:46.415Z,19.50
2022-09-06T04:16:43.623Z,19.50
2022-09-06T04:22:25.753Z,19.60
2022-09-06T04:31:11.869Z,19.70
2022-09-06T04:33:51.513Z,19.80
2022-09-06T04:36:24.059Z,19.80
2022-09-06T04:39:06.620Z,19.80
2022-09-06T04:41:37.764Z,19.70
2022-09-06T04:44:21.622Z,19.70
2022-09-06T04:46:57.752Z,19.60
2022-09-06T04:49:30.214Z,19.50
2022-09-06T04:52:30.049Z,19.40
2022-09-06T04:54:57.339Z,19.30
2022-09-06T04:57:27.164Z,19.30
2022-09-06T05:00:05.065Z,19.20
2022-09-06T05:05:25.504Z,19.10
2022-09-06T05:08:01.178Z,19.00
2022-09-06T05:14:03.897Z,19.10
2022-09-06T05:16:39.239Z,19.10
2022-09-06T05:19:16.936Z,19.00
2022-09-06T05:21:55.805Z,19.00
2022-09-06T05:24:29.634Z,18.90
2022-09-06T05:27:08.633Z,18.80
2022-09-06T05:29:47.586Z,18.90
2022-09-06T05:32:21.807Z,18.90
2022-09-06T05:45:17.581Z,18.90
2022-09-06T05:48:06.985Z,19.00
2022-09-06T05:50:33.571Z,19.10
2022-09-06T05:53:22.523Z,19.30
2022-09-06T05:55:51.098Z,19.30
2022-09-06T06:02:20.799Z,19.50
2022-09-06T06:04:49.257Z,19.70
2022-09-06T06:10:51.556Z,20.10
2022-09-06T06:13:31.794Z,20.30
2022-09-06T06:16:04.058Z,20.50
2022-09-06T06:18:37.436Z,20.60
2022-09-06T06:27:30.974Z,21.20
2022-09-06T06:30:04.989Z,21.40
2022-09-06T06:32:44.046Z,21.60
2022-09-06T06:41:16.782Z,21.90
2022-09-06T06:43:55.405Z,21.90
2022-09-06T06:57:09.877Z,22.00
2022-09-06T06:59:45.320Z,21.80
2022-09-06T07:02:22.914Z,21.70
2022-09-06T07:04:50.041Z,21.80
2022-09-06T07:07:41.526Z,22.10
2022-09-06T07:16:16.665Z,23.10
2022-09-06T07:39:06.514Z,25.00
2022-09-06T07:41:42.809Z,25.30
2022-09-06T07:44:21.619Z,25.50
2022-09-06T07:55:20.661Z,25.30
2022-09-06T07:57:47.221Z,25.50
2022-09-06T08:00:57.262Z,25.90
2022-09-06T08:03:35.477Z,26.70
2022-09-06T08:11:26.727Z,28.20
2022-09-06T08:13:59.291Z,28.60
2022-09-06T08:16:28.142Z,28.90
2022-09-06T08:19:13.481Z,29.30
2022-09-06T08:21:40.230Z,30.40
2022-09-06T08:24:08.448Z,33.60
2022-09-06T08:26:36.750Z,35.70
2022-09-06T08:29:06.817Z,37.10
2022-09-06T08:31:35.596Z,38.40
2022-09-06T08:34:02.554Z,38.70
2022-09-06T08:36:31.748Z,39.70
2022-09-06T08:39:00.090Z,40.00
2022-09-06T08:41:42.094Z,40.20
2022-09-06T08:47:20.765Z,40.70
2022-09-06T08:50:06.706Z,41.40
2022-09-06T08:53:18.250Z,40.40
2022-09-06T08:55:57.418Z,39.50
2022-09-06T08:58:56.473Z,40.50
2022-09-06T09:04:28.456Z,41.30
2022-09-06T09:07:04.487Z,42.30
2022-09-06T09:09:34.288Z,42.70
2022-09-06T09:12:01.929Z,43.00
2022-09-06T09:14:36.706Z,43.10
2022-09-06T09:17:10.942Z,43.00
2022-09-06T09:19:39.445Z,43.70
2022-09-06T09:22:10.050Z,43.90
2022-09-06T09:24:37.457Z,44.00
2022-09-06T09:27:18.527Z,43.50
2022-09-06T09:32:44.876Z,42.90
2022-09-06T09:35:33.922Z,42.10
2022-09-06T09:38:12.008Z,42.30
2022-09-06T09:40:54.058Z,42.90
2022-09-06T09:43:26.337Z,41.60
2022-09-06T09:46:17.090Z,41.90
2022-09-06T09:49:04.445Z,42.50
2022-09-06T09:51:33.676Z,43.30
2022-09-06T09:54:12.261Z,43.10
2022-09-06T09:56:46.781Z,42.90
2022-09-06T09:59:23.906Z,42.90
2022-09-06T10:01:55.031Z,43.10
2022-09-06T10:04:49.565Z,43.60
2022-09-06T10:07:22.443Z,43.60
2022-09-06T10:10:15.836Z,43.20
2022-09-06T10:12:46.783Z,42.30
2022-09-06T10:15:47.858Z,42.10
2022-09-06T10:18:34.605Z,41.10
2022-09-06T10:21:06.434Z,41.60
2022-09-06T10:26:38.983Z,42.00
2022-09-06T10:29:09.573Z,42.20
2022-09-06T10:31:39.348Z,41.90
2022-09-06T10:34:41.805Z,42.50
2022-09-06T10:40:48.218Z,42.20
2022-09-06T10:43:23.236Z,42.70
2022-09-06T10:46:11.931Z,42.90
2022-09-06T10:49:02.423Z,43.40
2022-09-06T10:54:44.344Z,43.40
2022-09-06T11:04:04.164Z,42.80
2022-09-06T11:06:44.336Z,43.00
2022-09-06T11:09:25.897Z,43.40
2022-09-06T11:12:16.300Z,43.40
2022-09-06T11:21:10.758Z,44.70
2022-09-06T11:24:00.388Z,44.70
2022-09-06T11:26:58.736Z,44.30
2022-09-06T11:29:30.616Z,43.60
2022-09-06T11:32:38.876Z,43.60
2022-09-06T11:35:28.514Z,43.20
2022-09-06T11:38:17.911Z,43.10
2022-09-06T11:43:49.734Z,43.10
2022-09-06T11:46:34.606Z,42.30
2022-09-06T11:52:47.590Z,41.80
2022-09-06T11:55:22.892Z,40.40
2022-09-06T11:58:02.391Z,38.40
2022-09-06T12:00:42.281Z,37.30
2022-09-06T12:06:28.923Z,35.40
2022-09-06T12:09:06.300Z,35.00
2022-09-06T12:11:48.396Z,34.60
2022-09-06T12:14:45.323Z,34.30
2022-09-06T12:17:14.893Z,33.70
2022-09-06T12:19:53.217Z,33.20
2022-09-06T12:22:31.767Z,33.00
2022-09-06T12:25:16.949Z,33.00
2022-09-06T12:28:01.487Z,32.70
2022-09-06T12:30:41.993Z,32.40
2022-09-06T12:33:27.500Z,32.50
2022-09-06T12:36:11.702Z,32.60
2022-09-06T12:38:38.548Z,32.30
2022-09-06T12:41:08.323Z,32.00
2022-09-06T12:43:42.825Z,31.80
2022-09-06T12:46:15.460Z,31.80
2022-09-06T12:48:47.815Z,31.80
2022-09-06T12:51:22.077Z,31.40
2022-09-06T12:53:57.939Z,31.40
2022-09-06T12:56:26.734Z,31.40
2022-09-06T12:58:53.448Z,31.40
2022-09-06T13:01:55.268Z,31.40
2022-09-06T13:04:56.452Z,31.60
2022-09-06T13:07:38.589Z,31.40
2022-09-06T13:10:05.481Z,31.10
2022-09-06T13:12:43.514Z,30.80
2022-09-06T13:15:31.074Z,30.60
2022-09-06T13:18:31.727Z,30.40
2022-09-06T13:21:10.906Z,30.30
2022-09-06T13:23:50.251Z,30.30
2022-09-06T13:26:40.205Z,30.40
2022-09-06T13:29:21.103Z,30.30
2022-09-06T13:32:09.604Z,30.10
2022-09-06T13:34:49.256Z,30.20
2022-09-06T13:37:16.794Z,30.30
2022-09-06T13:39:58.930Z,30.30
2022-09-06T13:42:52.771Z,30.40
2022-09-06T13:45:42.546Z,30.40
2022-09-06T13:48:29.002Z,30.50
2022-09-06T13:51:05.614Z,30.70
2022-09-06T13:53:54.138Z,30.60
2022-09-06T13:56:24.961Z,30.40
2022-09-06T13:59:05.941Z,30.30
2022-09-06T14:01:37.898Z,30.10
2022-09-06T14:04:11.377Z,30.00
2022-09-06T14:06:50.699Z,30.00
2022-09-06T14:09:36.311Z,29.90
2022-09-06T14:12:19.782Z,30.00
2022-09-06T14:14:57.192Z,30.30
2022-09-06T14:17:30.321Z,30.40
2022-09-06T14:19:56.877Z,30.40
2022-09-06T14:22:25.731Z,30.50
2022-09-06T14:25:05.290Z,30.50
2022-09-06T14:27:37.406Z,30.50
2022-09-06T14:30:17.449Z,30.60
2022-09-06T14:39:23.871Z,30.60
2022-09-06T14:42:00.224Z,30.60
2022-09-06T14:44:43.169Z,30.50
2022-09-06T14:47:14.482Z,30.40
2022-09-06T14:50:03.829Z,30.40
2022-09-06T14:52:38.176Z,30.40
2022-09-06T14:55:08.977Z,30.40
2022-09-06T14:57:46.144Z,30.50
2022-09-06T15:00:17.565Z,30.50
2022-09-06T15:02:51.531Z,30.50
2022-09-06T15:05:18.373Z,30.50
2022-09-06T15:08:14.498Z,30.50
2022-09-06T15:13:52.115Z,30.50
2022-09-06T15:16:20.766Z,30.50
2022-09-06T15:19:38.109Z,30.40
2022-09-06T15:22:06.357Z,30.50
2022-09-06T15:24:53.222Z,30.40
2022-09-06T15:27:33.894Z,30.10
2022-09-06T15:30:10.816Z,29.80
2022-09-06T15:32:42.637Z,29.60
2022-09-06T15:35:18.248Z,29.40
2022-09-06T15:41:42.210Z,29.30
2022-09-06T15:47:48.704Z,29.30
2022-09-06T15:50:29.154Z,29.30
2022-09-06T15:53:11.001Z,29.30
2022-09-06T15:58:57.355Z,29.30
2022-09-06T16:01:26.490Z,29.30
2022-09-06T16:04:04.937Z,29.20
2022-09-06T16:06:42.710Z,29.10
2022-09-06T16:09:21.934Z,29.00
2022-09-06T16:12:21.975Z,29.00
2022-09-06T16:15:27.150Z,28.90
2022-09-06T16:17:55.550Z,28.80
2022-09-06T16:20:23.549Z,28.80
2022-09-06T16:22:50.202Z,28.70
2022-09-06T16:25:16.811Z,28.60
2022-09-06T16:27:43.410Z,28.50
2022-09-06T16:30:53.167Z,28.40
2022-09-06T16:33:19.848Z,28.30
2022-09-06T16:35:50.833Z,28.20
2022-09-06T16:38:19.346Z,28.20
2022-09-06T16:41:26.640Z,28.10
2022-09-06T16:44:21.552Z,28.00
2022-09-06T16:47:03.774Z,27.90
2022-09-06T16:49:35.860Z,27.70
2022-09-06T16:55:44.558Z,27.60
2022-09-06T16:58:31.641Z,27.50
2022-09-06T17:00:58.360Z,27.40
2022-09-06T17:03:36.835Z,27.30
2022-09-06T17:13:09.522Z,25.70
2022-09-06T17:18:54.848Z,24.80
2022-09-06T17:21:55.986Z,24.30
2022-09-06T17:24:28.145Z,24.00
2022-09-06T17:26:57.441Z,23.60
2022-09-06T17:29:26.503Z,23.30
2022-09-06T17:31:53.492Z,23.20
2022-09-06T17:34:24.640Z,23.00
2022-09-06T17:36:52.062Z,22.70
2022-09-06T17:39:31.915Z,22.30
2022-09-06T17:42:02.028Z,21.90
2022-09-06T17:44:28.657Z,21.40
2022-09-06T17:47:12.515Z,21.00
2022-09-06T17:49:39.453Z,20.70
2022-09-06T17:52:32.177Z,20.50
2022-09-06T17:55:09.484Z,20.40
2022-09-06T18:00:42.453Z,20.20
2022-09-06T18:03:39.859Z,20.10
2022-09-06T18:06:19.342Z,20.10
2022-09-06T18:09:19.861Z,20.00
2022-09-06T18:14:58.262Z,19.50
2022-09-06T18:17:46.546Z,19.30
2022-09-06T18:20:20.801Z,19.20
2022-09-06T18:23:07.534Z,19.00
2022-09-06T18:25:44.498Z,18.80
2022-09-06T18:28:17.385Z,18.70
2022-09-06T18:30:59.761Z,18.80
2022-09-06T18:34:23.047Z,18.90
2022-09-06T18:37:18.534Z,19.00
2022-09-06T18:39:47.375Z,19.00
2022-09-06T18:42:45.497Z,18.80
2022-09-06T18:48:26.492Z,18.50
2022-09-06T18:51:21.614Z,18.40
2022-09-06T18:54:26.190Z,18.40
2022-09-06T18:56:57.076Z,18.50
2022-09-06T18:59:23.868Z,18.50
2022-09-06T19:01:52.038Z,18.50
2022-09-06T19:04:18.725Z,18.60
2022-09-06T19:06:45.377Z,18.70
2022-09-06T19:09:14.595Z,18.70
2022-09-06T19:11:46.301Z,18.80
2022-09-06T19:14:13.587Z,18.90
2022-09-06T19:16:44.430Z,18.90
2022-09-06T19:19:11.768Z,18.80
2022-09-06T19:21:47.268Z,18.80
2022-09-06T19:24:15.552Z,18.80
2022-09-06T19:26:44.067Z,18.80
2022-09-06T19:48:35.745Z,18.40
2022-09-06T19:51:09.984Z,18.30
2022-09-06T19:53:38.680Z,18.30
2022-09-06T20:15:13.096Z,18.30
2022-09-06T20:17:39.677Z,18.30
2022-09-06T20:20:06.690Z,18.30
2022-09-06T20:22:33.227Z,18.20
2022-09-06T20:24:59.792Z,18.20
2022-09-06T20:27:26.397Z,18.20
2022-09-06T20:29:53.106Z,18.20
2022-09-06T20:32:19.681Z,18.20
2022-09-06T20:34:46.737Z,18.20
2022-09-06T20:37:13.375Z,18.00
2022-09-06T20:39:40.257Z,18.00
2022-09-06T20:42:07.060Z,18.10
2022-09-06T20:44:34.057Z,18.10
2022-09-06T20:47:01.603Z,18.00
2022-09-06T20:49:28.185Z,18.00
2022-09-06T20:51:54.742Z,18.10
2022-09-06T20:54:21.305Z,18.10
2022-09-06T20:56:50.321Z,18.10
2022-09-06T20:59:16.945Z,18.10
2022-09-06T21:01:45.927Z,18.10
2022-09-06T21:04:15.732Z,18.10
2022-09-06T21:06:42.637Z,18.20
2022-09-06T21:09:11.882Z,18.10
2022-09-06T21:11:38.546Z,18.10
2022-09-06T21:14:06.242Z,18.10
2022-09-06T21:16:33.847Z,18.10
2022-09-06T21:19:03.453Z,18.10
2022-09-06T21:21:31.666Z,18.00
2022-09-06T21:23:59.894Z,18.00
2022-09-06T21:26:26.515Z,18.00
2022-09-06T21:28:53.366Z,18.10
2022-09-06T21:31:25.310Z,18.00
2022-09-06T21:33:54.144Z,18.00
2022-09-06T21:36:32.240Z,18.00
2022-09-06T21:39:01.716Z,18.00
2022-09-06T21:41:29.851Z,18.00
2022-09-06T21:43:58.765Z,18.00
2022-09-06T21:46:32.584Z,18.00
2022-09-06T21:49:02.509Z,18.00
2022-09-06T21:51:29.058Z,18.00
2022-09-06T21:53:59.114Z,17.90
2022-09-06T21:56:26.509Z,18.00
2022-09-06T21:59:01.985Z,17.90
2022-09-06T22:01:31.694Z,17.90
2022-09-06T22:03:58.515Z,17.80
2022-09-06T22:06:28.701Z,17.70
2022-09-06T22:08:57.504Z,17.70
2022-09-06T22:11:26.630Z,17.60
2022-09-06T22:13:53.569Z,17.60
2022-09-06T22:16:22.595Z,17.60
2022-09-06T22:19:03.166Z,17.60
2022-09-06T22:21:29.788Z,17.60
2022-09-06T22:23:59.380Z,17.60
2022-09-06T22:26:28.244Z,17.60
2022-09-06T22:29:00.586Z,17.60
2022-09-06T22:31:28.394Z,17.50
2022-09-06T22:33:55.745Z,17.50
2022-09-06T22:36:23.824Z,17.50
2022-09-06T22:38:57.069Z,17.50
2022-09-06T22:41:28.557Z,17.50
2022-09-06T22:47:53.903Z,17.50
2022-09-06T22:50:30.540Z,17.50
2022-09-06T22:53:34.871Z,17.40
2022-09-06T22:56:38.587Z,17.50
2022-09-06T22:59:06.915Z,17.50
2022-09-06T23:01:42.168Z,17.40
2022-09-06T23:04:55.624Z,17.40
2022-09-06T23:10:47.851Z,17.50
2022-09-06T23:16:42.194Z,17.50
2022-09-06T23:19:44.762Z,17.50
2022-09-06T23:22:30.406Z,17.50
2022-09-06T23:28:57.456Z,17.50
2022-09-06T23:31:34.902Z,17.50
2022-09-06T23:37:30.383Z,17.40
2022-09-06T23:40:10.747Z,17.40
2022-09-06T23:42:59.908Z,17.30
2022-09-06T23:45:34.091Z,17.30
2022-09-06T23:48:10.944Z,17.30
2022-09-06T23:53:23.011Z,17.30
2022-09-06T23:55:59.537Z,17.40
2022-09-06T23:58:40.322Z,17.40
